sensor_id;sensor_type;location;lat;lon;timestamp;pressure;altitude;pressure_sealevel;temperature;humidity
41706;BME280;27385;51.096;17.190;2023-09-19T00:01:32;99546.17;;;19.97;81.12
41706;BME280;27385;51.096;17.190;2023-09-19T00:04:03;99549.27;;;19.95;81.24
41706;BME280;27385;51.096;17.190;2023-09-19T00:06:39;99555.53;;;19.91;81.65
41706;BME280;27385;51.096;17.190;2023-09-19T00:09:10;99561.48;;;19.84;81.69
41706;BME280;27385;51.096;17.190;2023-09-19T00:11:40;99565.61;;;19.77;82.02
41706;BME280;27385;51.096;17.190;2023-09-19T00:14:11;99568.27;;;19.72;82.22
41706;BME280;27385;51.096;17.190;2023-09-19T00:16:43;99570.77;;;19.68;82.47
41706;BME280;27385;51.096;17.190;2023-09-19T00:19:15;99563.47;;;19.64;82.68
41706;BME280;27385;51.096;17.190;2023-09-19T00:21:46;99558.16;;;19.59;83.08
41706;BME280;27385;51.096;17.190;2023-09-19T00:24:16;99563.52;;;19.53;83.10
41706;BME280;27385;51.096;17.190;2023-09-19T00:26:47;99564.98;;;19.51;83.31
41706;BME280;27385;51.096;17.190;2023-09-19T00:29:18;99561.67;;;19.49;83.46
41706;BME280;27385;51.096;17.190;2023-09-19T00:31:49;99561.05;;;19.46;83.76
41706;BME280;27385;51.096;17.190;2023-09-19T00:34:20;99559.77;;;19.40;83.95
41706;BME280;27385;51.096;17.190;2023-09-19T00:36:52;99566.80;;;19.35;84.21
41706;BME280;27385;51.096;17.190;2023-09-19T00:39:24;99566.80;;;19.32;84.29
41706;BME280;27385;51.096;17.190;2023-09-19T00:41:55;99561.94;;;19.29;84.72
41706;BME280;27385;51.096;17.190;2023-09-19T00:44:25;99569.38;;;19.26;85.00
41706;BME280;27385;51.096;17.190;2023-09-19T00:46:56;99570.58;;;19.22;84.94
41706;BME280;27385;51.096;17.190;2023-09-19T00:49:28;99570.98;;;19.20;85.15
41706;BME280;27385;51.096;17.190;2023-09-19T00:52:00;99570.40;;;19.19;85.56
41706;BME280;27385;51.096;17.190;2023-09-19T00:54:30;99571.59;;;19.16;85.65
41706;BME280;27385;51.096;17.190;2023-09-19T00:57:03;99570.23;;;19.13;85.94
41706;BME280;27385;51.096;17.190;2023-09-19T00:59:34;99566.03;;;19.11;85.99
41706;BME280;27385;51.096;17.190;2023-09-19T01:02:05;99562.64;;;19.11;86.15
41706;BME280;27385;51.096;17.190;2023-09-19T01:04:37;99553.38;;;19.09;86.24
41706;BME280;27385;51.096;17.190;2023-09-19T01:07:09;99552.77;;;19.07;86.42
41706;BME280;27385;51.096;17.190;2023-09-19T01:09:40;99550.95;;;19.03;86.61
41706;BME280;27385;51.096;17.190;2023-09-19T01:12:13;99550.27;;;18.98;86.96
41706;BME280;27385;51.096;17.190;2023-09-19T01:14:54;99555.14;;;18.93;87.03
41706;BME280;27385;51.096;17.190;2023-09-19T01:17:27;99555.40;;;18.88;87.21
41706;BME280;27385;51.096;17.190;2023-09-19T01:20:17;99557.98;;;18.84;87.41
41706;BME280;27385;51.096;17.190;2023-09-19T01:23:00;99555.76;;;18.82;87.52
41706;BME280;27385;51.096;17.190;2023-09-19T01:25:55;99549.34;;;18.80;87.37
41706;BME280;27385;51.096;17.190;2023-09-19T01:31:23;99553.98;;;18.84;87.59
41706;BME280;27385;51.096;17.190;2023-09-19T01:34:02;99553.13;;;18.81;87.92
41706;BME280;27385;51.096;17.190;2023-09-19T01:36:35;99555.59;;;18.79;87.94
41706;BME280;27385;51.096;17.190;2023-09-19T01:39:10;99554.21;;;18.77;88.25
41706;BME280;27385;51.096;17.190;2023-09-19T01:41:57;99548.83;;;18.74;88.27
41706;BME280;27385;51.096;17.190;2023-09-19T01:44:40;99540.23;;;18.72;88.54
41706;BME280;27385;51.096;17.190;2023-09-19T01:47:23;99549.69;;;18.69;88.75
41706;BME280;27385;51.096;17.190;2023-09-19T01:50:10;99545.99;;;18.68;88.67
41706;BME280;27385;51.096;17.190;2023-09-19T01:52:48;99549.26;;;18.71;88.87
41706;BME280;27385;51.096;17.190;2023-09-19T01:55:20;99551.60;;;18.72;89.39
41706;BME280;27385;51.096;17.190;2023-09-19T01:57:58;99553.41;;;18.72;89.49
41706;BME280;27385;51.096;17.190;2023-09-19T02:00:31;99554.56;;;18.73;89.82
41706;BME280;27385;51.096;17.190;2023-09-19T02:03:04;99557.05;;;18.74;89.99
41706;BME280;27385;51.096;17.190;2023-09-19T02:05:35;99553.58;;;18.73;90.06
41706;BME280;27385;51.096;17.190;2023-09-19T02:08:06;99554.67;;;18.73;90.44
41706;BME280;27385;51.096;17.190;2023-09-19T02:10:38;99551.72;;;18.72;90.48
41706;BME280;27385;51.096;17.190;2023-09-19T02:13:09;99548.73;;;18.70;90.80
41706;BME280;27385;51.096;17.190;2023-09-19T02:15:40;99545.10;;;18.65;91.02
41706;BME280;27385;51.096;17.190;2023-09-19T02:18:11;99541.52;;;18.61;91.38
41706;BME280;27385;51.096;17.190;2023-09-19T02:20:42;99547.13;;;18.56;91.64
41706;BME280;27385;51.096;17.190;2023-09-19T02:23:15;99548.73;;;18.50;91.88
41706;BME280;27385;51.096;17.190;2023-09-19T02:25:54;99550.91;;;18.50;92.02
41706;BME280;27385;51.096;17.190;2023-09-19T02:28:27;99556.39;;;18.51;92.15
41706;BME280;27385;51.096;17.190;2023-09-19T02:30:59;99561.96;;;18.52;92.26
41706;BME280;27385;51.096;17.190;2023-09-19T02:33:30;99569.81;;;18.52;92.54
41706;BME280;27385;51.096;17.190;2023-09-19T02:36:02;99576.08;;;18.53;92.63
41706;BME280;27385;51.096;17.190;2023-09-19T02:38:34;99572.05;;;18.53;92.82
41706;BME280;27385;51.096;17.190;2023-09-19T02:41:06;99576.86;;;18.56;93.00
41706;BME280;27385;51.096;17.190;2023-09-19T02:43:37;99573.92;;;18.59;93.07
41706;BME280;27385;51.096;17.190;2023-09-19T02:46:10;99565.77;;;18.61;93.16
41706;BME280;27385;51.096;17.190;2023-09-19T02:48:42;99555.67;;;18.59;93.22
41706;BME280;27385;51.096;17.190;2023-09-19T02:51:13;99547.39;;;18.57;93.32
41706;BME280;27385;51.096;17.190;2023-09-19T02:53:44;99536.45;;;18.57;93.40
41706;BME280;27385;51.096;17.190;2023-09-19T02:56:16;99527.83;;;18.56;93.48
41706;BME280;27385;51.096;17.190;2023-09-19T02:58:47;99524.87;;;18.58;93.75
41706;BME280;27385;51.096;17.190;2023-09-19T03:01:18;99519.85;;;18.59;93.83
41706;BME280;27385;51.096;17.190;2023-09-19T03:03:50;99516.35;;;18.59;93.89
41706;BME280;27385;51.096;17.190;2023-09-19T03:06:20;99515.11;;;18.59;93.73
41706;BME280;27385;51.096;17.190;2023-09-19T03:08:51;99518.30;;;18.62;93.87
41706;BME280;27385;51.096;17.190;2023-09-19T03:11:22;99522.56;;;18.62;94.09
41706;BME280;27385;51.096;17.190;2023-09-19T03:13:54;99526.89;;;18.60;94.04
41706;BME280;27385;51.096;17.190;2023-09-19T03:16:25;99530.08;;;18.59;94.30
41706;BME280;27385;51.096;17.190;2023-09-19T03:18:56;99531.27;;;18.58;94.19
41706;BME280;27385;51.096;17.190;2023-09-19T03:21:27;99531.98;;;18.58;94.28
41706;BME280;27385;51.096;17.190;2023-09-19T03:23:58;99535.05;;;18.58;94.47
41706;BME280;27385;51.096;17.190;2023-09-19T03:26:29;99531.03;;;18.56;94.52
41706;BME280;27385;51.096;17.190;2023-09-19T03:29:00;99530.61;;;18.52;94.62
41706;BME280;27385;51.096;17.190;2023-09-19T03:31:36;99532.52;;;18.49;94.73
41706;BME280;27385;51.096;17.190;2023-09-19T03:34:07;99532.78;;;18.49;94.95
41706;BME280;27385;51.096;17.190;2023-09-19T03:36:38;99531.02;;;18.46;94.94
41706;BME280;27385;51.096;17.190;2023-09-19T03:39:10;99531.45;;;18.45;95.06
41706;BME280;27385;51.096;17.190;2023-09-19T03:41:41;99536.15;;;18.44;95.30
41706;BME280;27385;51.096;17.190;2023-09-19T03:44:12;99539.71;;;18.42;95.38
41706;BME280;27385;51.096;17.190;2023-09-19T03:46:43;99542.53;;;18.40;95.48
41706;BME280;27385;51.096;17.190;2023-09-19T03:49:13;99541.95;;;18.39;95.46
41706;BME280;27385;51.096;17.190;2023-09-19T03:51:44;99547.43;;;18.37;95.53
41706;BME280;27385;51.096;17.190;2023-09-19T03:54:16;99548.50;;;18.35;95.68
41706;BME280;27385;51.096;17.190;2023-09-19T03:56:48;99548.89;;;18.32;95.88
41706;BME280;27385;51.096;17.190;2023-09-19T03:59:19;99549.33;;;18.31;95.81
41706;BME280;27385;51.096;17.190;2023-09-19T04:01:50;99541.86;;;18.30;96.03
41706;BME280;27385;51.096;17.190;2023-09-19T04:04:25;99539.89;;;18.29;96.15
41706;BME280;27385;51.096;17.190;2023-09-19T04:06:56;99536.57;;;18.28;96.27
41706;BME280;27385;51.096;17.190;2023-09-19T04:09:27;99539.52;;;18.26;96.34
41706;BME280;27385;51.096;17.190;2023-09-19T04:11:57;99545.41;;;18.23;96.51
41706;BME280;27385;51.096;17.190;2023-09-19T04:14:31;99546.56;;;18.19;96.67
41706;BME280;27385;51.096;17.190;2023-09-19T04:17:02;99541.73;;;18.18;96.84
41706;BME280;27385;51.096;17.190;2023-09-19T04:19:34;99543.45;;;18.17;96.96
41706;BME280;27385;51.096;17.190;2023-09-19T04:22:05;99548.30;;;18.16;97.00
41706;BME280;27385;51.096;17.190;2023-09-19T04:24:36;99549.95;;;18.15;97.16
41706;BME280;27385;51.096;17.190;2023-09-19T04:27:07;99541.22;;;18.16;97.13
41706;BME280;27385;51.096;17.190;2023-09-19T04:29:39;99546.09;;;18.15;97.16
41706;BME280;27385;51.096;17.190;2023-09-19T04:32:10;99545.45;;;18.14;97.21
41706;BME280;27385;51.096;17.190;2023-09-19T04:34:42;99541.09;;;18.14;97.36
41706;BME280;27385;51.096;17.190;2023-09-19T04:37:13;99541.00;;;18.14;97.28
41706;BME280;27385;51.096;17.190;2023-09-19T04:39:44;99541.62;;;18.14;97.28
41706;BME280;27385;51.096;17.190;2023-09-19T04:42:16;99539.01;;;18.13;97.39
41706;BME280;27385;51.096;17.190;2023-09-19T04:44:48;99543.64;;;18.13;97.53
41706;BME280;27385;51.096;17.190;2023-09-19T04:47:19;99540.83;;;18.12;97.61
41706;BME280;27385;51.096;17.190;2023-09-19T04:49:50;99551.52;;;18.10;97.71
41706;BME280;27385;51.096;17.190;2023-09-19T04:52:21;99554.20;;;18.09;97.70
41706;BME280;27385;51.096;17.190;2023-09-19T04:54:52;99558.21;;;18.07;97.85
41706;BME280;27385;51.096;17.190;2023-09-19T04:57:23;99553.02;;;18.04;97.81
41706;BME280;27385;51.096;17.190;2023-09-19T04:59:55;99558.30;;;18.02;97.92
41706;BME280;27385;51.096;17.190;2023-09-19T05:02:28;99560.68;;;17.99;98.11
41706;BME280;27385;51.096;17.190;2023-09-19T05:05:00;99560.92;;;17.98;98.10
41706;BME280;27385;51.096;17.190;2023-09-19T05:07:31;99561.66;;;17.97;98.30
41706;BME280;27385;51.096;17.190;2023-09-19T05:10:04;99561.28;;;17.96;98.29
41706;BME280;27385;51.096;17.190;2023-09-19T05:12:36;99565.64;;;17.95;98.33
41706;BME280;27385;51.096;17.190;2023-09-19T05:15:08;99563.58;;;17.96;98.41
41706;BME280;27385;51.096;17.190;2023-09-19T05:17:39;99564.86;;;17.96;98.46
41706;BME280;27385;51.096;17.190;2023-09-19T05:20:11;99565.27;;;17.96;98.53
41706;BME280;27385;51.096;17.190;2023-09-19T05:22:44;99571.57;;;17.97;98.44
41706;BME280;27385;51.096;17.190;2023-09-19T05:25:15;99569.79;;;17.99;98.61
41706;BME280;27385;51.096;17.190;2023-09-19T05:27:48;99573.20;;;18.00;98.69
41706;BME280;27385;51.096;17.190;2023-09-19T05:30:20;99574.67;;;18.01;98.79
41706;BME280;27385;51.096;17.190;2023-09-19T05:32:51;99569.95;;;18.00;98.92
41706;BME280;27385;51.096;17.190;2023-09-19T05:35:22;99577.40;;;18.00;98.95
41706;BME280;27385;51.096;17.190;2023-09-19T05:37:53;99578.61;;;17.99;98.88
41706;BME280;27385;51.096;17.190;2023-09-19T05:40:25;99588.88;;;17.99;98.99
41706;BME280;27385;51.096;17.190;2023-09-19T05:42:56;99597.91;;;17.99;99.00
41706;BME280;27385;51.096;17.190;2023-09-19T05:45:30;99594.31;;;17.97;98.94
41706;BME280;27385;51.096;17.190;2023-09-19T05:48:09;99588.04;;;17.98;99.09
41706;BME280;27385;51.096;17.190;2023-09-19T05:50:40;99591.48;;;17.98;98.90
41706;BME280;27385;51.096;17.190;2023-09-19T05:53:12;99604.95;;;17.99;99.12
41706;BME280;27385;51.096;17.190;2023-09-19T05:55:43;99607.39;;;17.98;99.03
41706;BME280;27385;51.096;17.190;2023-09-19T05:58:14;99616.61;;;17.97;99.17
41706;BME280;27385;51.096;17.190;2023-09-19T06:00:46;99622.99;;;17.96;99.20
41706;BME280;27385;51.096;17.190;2023-09-19T06:03:18;99623.49;;;17.94;99.36
41706;BME280;27385;51.096;17.190;2023-09-19T06:05:52;99626.15;;;17.95;99.56
41706;BME280;27385;51.096;17.190;2023-09-19T06:08:26;99621.52;;;17.95;99.88
41706;BME280;27385;51.096;17.190;2023-09-19T06:10:57;99620.56;;;17.97;99.99
41706;BME280;27385;51.096;17.190;2023-09-19T06:13:30;99623.89;;;17.98;100.00
41706;BME280;27385;51.096;17.190;2023-09-19T06:16:03;99622.53;;;18.01;100.00
41706;BME280;27385;51.096;17.190;2023-09-19T06:18:34;99624.40;;;18.02;100.00
41706;BME280;27385;51.096;17.190;2023-09-19T06:21:06;99621.91;;;18.04;100.00
41706;BME280;27385;51.096;17.190;2023-09-19T06:23:37;99624.70;;;18.05;100.00
41706;BME280;27385;51.096;17.190;2023-09-19T06:26:07;99627.10;;;18.06;100.00
41706;BME280;27385;51.096;17.190;2023-09-19T06:28:38;99630.35;;;18.08;100.00
41706;BME280;27385;51.096;17.190;2023-09-19T06:31:09;99633.30;;;18.09;100.00
41706;BME280;27385;51.096;17.190;2023-09-19T06:33:40;99637.98;;;18.11;100.00
41706;BME280;27385;51.096;17.190;2023-09-19T06:36:12;99641.26;;;18.13;100.00
41706;BME280;27385;51.096;17.190;2023-09-19T06:38:43;99638.13;;;18.13;100.00
41706;BME280;27385;51.096;17.190;2023-09-19T06:41:13;99644.22;;;18.15;100.00
41706;BME280;27385;51.096;17.190;2023-09-19T06:43:46;99650.77;;;18.18;100.00
41706;BME280;27385;51.096;17.190;2023-09-19T06:46:17;99655.88;;;18.22;100.00
41706;BME280;27385;51.096;17.190;2023-09-19T06:48:48;99654.83;;;18.25;100.00
41706;BME280;27385;51.096;17.190;2023-09-19T06:51:19;99657.30;;;18.27;100.00
41706;BME280;27385;51.096;17.190;2023-09-19T06:53:50;99661.60;;;18.30;100.00
41706;BME280;27385;51.096;17.190;2023-09-19T06:56:23;99665.02;;;18.33;100.00
41706;BME280;27385;51.096;17.190;2023-09-19T06:58:55;99668.45;;;18.36;99.88
41706;BME280;27385;51.096;17.190;2023-09-19T07:01:25;99672.84;;;18.40;99.56
41706;BME280;27385;51.096;17.190;2023-09-19T07:03:56;99673.39;;;18.44;98.86
41706;BME280;27385;51.096;17.190;2023-09-19T07:06:27;99673.22;;;18.48;98.45
41706;BME280;27385;51.096;17.190;2023-09-19T07:08:58;99681.70;;;18.55;98.43
41706;BME280;27385;51.096;17.190;2023-09-19T07:11:30;99683.86;;;18.62;97.84
41706;BME280;27385;51.096;17.190;2023-09-19T07:14:01;99691.10;;;18.69;97.45
41706;BME280;27385;51.096;17.190;2023-09-19T07:16:33;99697.14;;;18.77;97.22
41706;BME280;27385;51.096;17.190;2023-09-19T07:19:03;99695.65;;;18.84;96.72
41706;BME280;27385;51.096;17.190;2023-09-19T07:21:34;99700.35;;;18.91;96.48
41706;BME280;27385;51.096;17.190;2023-09-19T07:24:06;99701.09;;;18.95;96.07
41706;BME280;27385;51.096;17.190;2023-09-19T07:26:37;99699.23;;;18.99;96.09
41706;BME280;27385;51.096;17.190;2023-09-19T07:29:09;99701.80;;;19.04;95.46
41706;BME280;27385;51.096;17.190;2023-09-19T07:31:40;99704.79;;;19.08;95.70
41706;BME280;27385;51.096;17.190;2023-09-19T07:34:11;99707.90;;;19.13;94.60
41706;BME280;27385;51.096;17.190;2023-09-19T07:36:43;99705.72;;;19.18;94.85
41706;BME280;27385;51.096;17.190;2023-09-19T07:39:14;99713.95;;;19.22;94.56
41706;BME280;27385;51.096;17.190;2023-09-19T07:41:45;99716.27;;;19.24;93.93
41706;BME280;27385;51.096;17.190;2023-09-19T07:44:15;99716.31;;;19.25;93.34
41706;BME280;27385;51.096;17.190;2023-09-19T07:46:46;99717.27;;;19.23;92.52
41706;BME280;27385;51.096;17.190;2023-09-19T07:49:20;99717.30;;;19.22;92.50
41706;BME280;27385;51.096;17.190;2023-09-19T07:51:51;99720.16;;;19.22;92.39
41706;BME280;27385;51.096;17.190;2023-09-19T07:54:23;99723.59;;;19.24;92.34
41706;BME280;27385;51.096;17.190;2023-09-19T07:56:54;99729.05;;;19.27;92.52
41706;BME280;27385;51.096;17.190;2023-09-19T07:59:25;99730.79;;;19.32;91.89
41706;BME280;27385;51.096;17.190;2023-09-19T08:01:56;99731.63;;;19.37;91.25
41706;BME280;27385;51.096;17.190;2023-09-19T08:04:27;99734.70;;;19.42;90.80
41706;BME280;27385;51.096;17.190;2023-09-19T08:06:57;99739.38;;;19.48;90.44
41706;BME280;27385;51.096;17.190;2023-09-19T08:09:29;99743.04;;;19.52;90.35
41706;BME280;27385;51.096;17.190;2023-09-19T08:12:03;99747.08;;;19.57;90.17
41706;BME280;27385;51.096;17.190;2023-09-19T08:14:35;99749.09;;;19.61;90.00
41706;BME280;27385;51.096;17.190;2023-09-19T08:17:05;99752.91;;;19.62;89.38
41706;BME280;27385;51.096;17.190;2023-09-19T08:19:37;99754.61;;;19.63;88.82
41706;BME280;27385;51.096;17.190;2023-09-19T08:22:10;99756.73;;;19.63;89.14
41706;BME280;27385;51.096;17.190;2023-09-19T08:24:41;99754.31;;;19.62;88.01
41706;BME280;27385;51.096;17.190;2023-09-19T08:27:12;99760.17;;;19.60;87.66
41706;BME280;27385;51.096;17.190;2023-09-19T08:29:43;99762.70;;;19.59;87.51
41706;BME280;27385;51.096;17.190;2023-09-19T08:32:14;99762.77;;;19.58;87.56
41706;BME280;27385;51.096;17.190;2023-09-19T08:34:45;99769.05;;;19.56;86.95
41706;BME280;27385;51.096;17.190;2023-09-19T08:37:16;99768.95;;;19.53;86.79
41706;BME280;27385;51.096;17.190;2023-09-19T08:39:48;99771.69;;;19.51;86.51
41706;BME280;27385;51.096;17.190;2023-09-19T08:42:18;99771.45;;;19.50;86.67
41706;BME280;27385;51.096;17.190;2023-09-19T08:44:50;99772.30;;;19.51;86.67
41706;BME280;27385;51.096;17.190;2023-09-19T08:47:25;99778.80;;;19.53;86.58
41706;BME280;27385;51.096;17.190;2023-09-19T08:50:04;99780.52;;;19.54;86.21
41706;BME280;27385;51.096;17.190;2023-09-19T08:52:43;99779.45;;;19.58;86.15
41706;BME280;27385;51.096;17.190;2023-09-19T08:55:14;99777.44;;;19.60;86.03
41706;BME280;27385;51.096;17.190;2023-09-19T08:57:51;99781.92;;;19.64;85.99
41706;BME280;27385;51.096;17.190;2023-09-19T09:00:23;99786.61;;;19.68;86.01
41706;BME280;27385;51.096;17.190;2023-09-19T09:02:58;99785.61;;;19.71;85.30
41706;BME280;27385;51.096;17.190;2023-09-19T09:05:30;99786.70;;;19.70;84.98
41706;BME280;27385;51.096;17.190;2023-09-19T09:08:02;99787.23;;;19.70;84.90
41706;BME280;27385;51.096;17.190;2023-09-19T09:10:35;99794.40;;;19.69;84.73
41706;BME280;27385;51.096;17.190;2023-09-19T09:13:11;99796.20;;;19.69;84.31
41706;BME280;27385;51.096;17.190;2023-09-19T09:15:43;99803.91;;;19.70;84.76
41706;BME280;27385;51.096;17.190;2023-09-19T09:18:15;99808.98;;;19.71;84.05
41706;BME280;27385;51.096;17.190;2023-09-19T09:20:47;99810.35;;;19.72;84.06
41706;BME280;27385;51.096;17.190;2023-09-19T09:23:18;99813.09;;;19.74;83.67
41706;BME280;27385;51.096;17.190;2023-09-19T09:25:55;99811.30;;;19.77;83.74
41706;BME280;27385;51.096;17.190;2023-09-19T09:28:30;99817.34;;;19.85;83.99
41706;BME280;27385;51.096;17.190;2023-09-19T09:31:03;99823.70;;;19.92;83.54
41706;BME280;27385;51.096;17.190;2023-09-19T09:33:37;99827.56;;;19.97;83.33
41706;BME280;27385;51.096;17.190;2023-09-19T09:36:09;99831.34;;;20.01;83.11
41706;BME280;27385;51.096;17.190;2023-09-19T09:38:46;99830.51;;;20.07;82.89
41706;BME280;27385;51.096;17.190;2023-09-19T09:41:18;99835.58;;;20.12;82.94
41706;BME280;27385;51.096;17.190;2023-09-19T09:43:56;99841.44;;;20.20;82.91
41706;BME280;27385;51.096;17.190;2023-09-19T09:46:45;99844.27;;;20.26;82.18
41706;BME280;27385;51.096;17.190;2023-09-19T09:49:50;99848.44;;;20.34;82.08
41706;BME280;27385;51.096;17.190;2023-09-19T09:52:47;99840.55;;;20.41;81.60
41706;BME280;27385;51.096;17.190;2023-09-19T09:55:18;99840.08;;;20.49;81.20
41706;BME280;27385;51.096;17.190;2023-09-19T09:58:03;99841.36;;;20.57;81.06
41706;BME280;27385;51.096;17.190;2023-09-19T10:00:55;99840.21;;;20.62;80.38
41706;BME280;27385;51.096;17.190;2023-09-19T10:03:35;99843.87;;;20.63;79.93
41706;BME280;27385;51.096;17.190;2023-09-19T10:06:11;99842.48;;;20.66;80.20
41706;BME280;27385;51.096;17.190;2023-09-19T10:09:03;99851.60;;;20.70;79.47
41706;BME280;27385;51.096;17.190;2023-09-19T10:11:42;99851.09;;;20.70;79.53
41706;BME280;27385;51.096;17.190;2023-09-19T10:14:16;99853.45;;;20.72;79.36
41706;BME280;27385;51.096;17.190;2023-09-19T10:16:49;99859.16;;;20.74;78.91
41706;BME280;27385;51.096;17.190;2023-09-19T10:19:27;99864.98;;;20.78;78.84
41706;BME280;27385;51.096;17.190;2023-09-19T10:22:05;99866.98;;;20.80;78.53
41706;BME280;27385;51.096;17.190;2023-09-19T10:24:39;99867.14;;;20.80;78.12
41706;BME280;27385;51.096;17.190;2023-09-19T10:27:10;99867.08;;;20.77;77.82
41706;BME280;27385;51.096;17.190;2023-09-19T10:29:42;99868.63;;;20.75;78.22
41706;BME280;27385;51.096;17.190;2023-09-19T10:32:16;99866.88;;;20.76;78.28
41706;BME280;27385;51.096;17.190;2023-09-19T10:34:50;99867.81;;;20.80;78.21
41706;BME280;27385;51.096;17.190;2023-09-19T10:37:25;99870.96;;;20.82;78.00
41706;BME280;27385;51.096;17.190;2023-09-19T10:39:57;99872.19;;;20.82;77.90
41706;BME280;27385;51.096;17.190;2023-09-19T10:42:30;99879.66;;;20.81;77.32
41706;BME280;27385;51.096;17.190;2023-09-19T10:45:03;99876.93;;;20.77;76.95
41706;BME280;27385;51.096;17.190;2023-09-19T10:47:37;99879.05;;;20.73;76.16
41706;BME280;27385;51.096;17.190;2023-09-19T10:50:09;99886.77;;;20.66;75.89
41706;BME280;27385;51.096;17.190;2023-09-19T10:52:51;99885.33;;;20.61;75.88
41706;BME280;27385;51.096;17.190;2023-09-19T10:55:30;99883.61;;;20.59;76.08
41706;BME280;27385;51.096;17.190;2023-09-19T10:58:02;99889.83;;;20.60;76.33
41706;BME280;27385;51.096;17.190;2023-09-19T11:00:54;99886.30;;;20.63;76.36
41706;BME280;27385;51.096;17.190;2023-09-19T11:03:25;99888.64;;;20.68;76.48
41706;BME280;27385;51.096;17.190;2023-09-19T11:06:04;99883.08;;;20.75;75.55
41706;BME280;27385;51.096;17.190;2023-09-19T11:09:01;99882.30;;;20.83;73.65
41706;BME280;27385;51.096;17.190;2023-09-19T11:11:52;99880.80;;;20.93;73.33
41706;BME280;27385;51.096;17.190;2023-09-19T11:14:39;99881.42;;;21.08;72.51
41706;BME280;27385;51.096;17.190;2023-09-19T11:17:41;99886.10;;;21.21;71.30
41706;BME280;27385;51.096;17.190;2023-09-19T11:20:22;99889.72;;;21.28;67.76
41706;BME280;27385;51.096;17.190;2023-09-19T11:23:21;99889.20;;;21.30;67.88
41706;BME280;27385;51.096;17.190;2023-09-19T11:25:56;99893.81;;;21.29;66.99
41706;BME280;27385;51.096;17.190;2023-09-19T11:28:36;99899.82;;;21.26;67.51
41706;BME280;27385;51.096;17.190;2023-09-19T11:34:47;99887.59;;;21.22;67.27
41706;BME280;27385;51.096;17.190;2023-09-19T11:40:37;99887.33;;;21.24;66.19
41706;BME280;27385;51.096;17.190;2023-09-19T11:43:29;99884.76;;;21.28;67.10
41706;BME280;27385;51.096;17.190;2023-09-19T11:46:08;99886.55;;;21.31;66.05
41706;BME280;27385;51.096;17.190;2023-09-19T11:48:43;99887.58;;;21.30;65.53
41706;BME280;27385;51.096;17.190;2023-09-19T11:51:19;99880.66;;;21.32;65.86
41706;BME280;27385;51.096;17.190;2023-09-19T11:53:53;99888.18;;;21.34;65.17
41706;BME280;27385;51.096;17.190;2023-09-19T11:56:25;99890.48;;;21.33;63.60
41706;BME280;27385;51.096;17.190;2023-09-19T11:58:58;99889.42;;;21.30;63.79
41706;BME280;27385;51.096;17.190;2023-09-19T12:01:31;99893.67;;;21.32;63.57
41706;BME280;27385;51.096;17.190;2023-09-19T12:04:04;99894.20;;;21.33;62.79
41706;BME280;27385;51.096;17.190;2023-09-19T12:06:35;99897.31;;;21.34;62.76
41706;BME280;27385;51.096;17.190;2023-09-19T12:09:13;99898.95;;;21.36;62.73
41706;BME280;27385;51.096;17.190;2023-09-19T12:11:46;99896.84;;;21.36;62.80
41706;BME280;27385;51.096;17.190;2023-09-19T12:14:24;99895.34;;;21.40;63.18
41706;BME280;27385;51.096;17.190;2023-09-19T12:16:59;99894.79;;;21.46;63.16
41706;BME280;27385;51.096;17.190;2023-09-19T12:19:31;99901.05;;;21.49;63.10
41706;BME280;27385;51.096;17.190;2023-09-19T12:22:03;99902.38;;;21.52;62.34
41706;BME280;27385;51.096;17.190;2023-09-19T12:24:35;99897.13;;;21.54;61.58
41706;BME280;27385;51.096;17.190;2023-09-19T12:27:08;99903.11;;;21.55;59.54
41706;BME280;27385;51.096;17.190;2023-09-19T12:29:46;99902.26;;;21.60;59.55
41706;BME280;27385;51.096;17.190;2023-09-19T12:32:18;99902.83;;;21.66;58.89
41706;BME280;27385;51.096;17.190;2023-09-19T12:34:54;99895.39;;;21.69;58.10
41706;BME280;27385;51.096;17.190;2023-09-19T12:37:25;99893.84;;;21.73;58.90
41706;BME280;27385;51.096;17.190;2023-09-19T12:40:07;99894.52;;;21.75;58.52
41706;BME280;27385;51.096;17.190;2023-09-19T12:42:48;99889.63;;;21.76;58.72
41706;BME280;27385;51.096;17.190;2023-09-19T12:45:19;99890.44;;;21.78;58.48
41706;BME280;27385;51.096;17.190;2023-09-19T12:48:21;99891.73;;;21.79;58.38
41706;BME280;27385;51.096;17.190;2023-09-19T12:51:03;99892.52;;;21.79;57.47
41706;BME280;27385;51.096;17.190;2023-09-19T12:53:38;99889.99;;;21.80;57.25
41706;BME280;27385;51.096;17.190;2023-09-19T12:56:12;99890.44;;;21.85;57.29
41706;BME280;27385;51.096;17.190;2023-09-19T12:58:54;99889.73;;;21.91;57.38
41706;BME280;27385;51.096;17.190;2023-09-19T13:01:26;99888.19;;;21.98;57.39
41706;BME280;27385;51.096;17.190;2023-09-19T13:04:15;99883.71;;;22.06;56.76
41706;BME280;27385;51.096;17.190;2023-09-19T13:06:48;99886.23;;;22.14;56.37
41706;BME280;27385;51.096;17.190;2023-09-19T13:09:20;99888.05;;;22.19;54.86
41706;BME280;27385;51.096;17.190;2023-09-19T13:11:52;99884.25;;;22.23;54.18
41706;BME280;27385;51.096;17.190;2023-09-19T13:14:24;99872.48;;;22.23;53.88
41706;BME280;27385;51.096;17.190;2023-09-19T13:16:59;99866.40;;;22.26;54.20
41706;BME280;27385;51.096;17.190;2023-09-19T13:19:42;99865.70;;;22.30;53.62
41706;BME280;27385;51.096;17.190;2023-09-19T13:22:39;99857.80;;;22.28;53.91
41706;BME280;27385;51.096;17.190;2023-09-19T13:25:12;99859.19;;;22.30;53.39
41706;BME280;27385;51.096;17.190;2023-09-19T13:27:47;99859.50;;;22.31;53.22
41706;BME280;27385;51.096;17.190;2023-09-19T13:30:22;99859.80;;;22.33;52.47
41706;BME280;27385;51.096;17.190;2023-09-19T13:33:05;99864.80;;;22.30;52.03
41706;BME280;27385;51.096;17.190;2023-09-19T13:35:37;99863.63;;;22.30;52.44